Time;durP1;ratioP1;P1;durP2;ratioP2;P2;SDS_P1;SDS_P2;PMS_P1;PMS_P2;Temp;Humidity;BMP_temperature;BMP_pressure;BME280_temperature;BME280_humidity;BME280_pressure;Samples;Min_cycle;Max_cycle;Signal;HPM_P1;HPM_P2
2022/11/06 00:00:41;;;;;;;4.32;1.75;;;;;;;9.07;100.00;101302.28;6295996;28;20053;-72
2022/11/06 00:03:43;;;;;;;4.28;2.20;;;;;;;9.10;100.00;101296.94;6295930;28;20049;-72
2022/11/06 00:06:46;;;;;;;2.92;1.80;;;;;;;9.12;100.00;101295.09;6295938;28;20389;-72
2022/11/06 00:09:49;;;;;;;4.38;2.17;;;;;;;9.12;100.00;101295.09;6295954;28;20059;-72
2022/11/06 00:12:51;;;;;;;2.75;1.40;;;;;;;9.12;100.00;101292.47;6295953;28;20070;-72
2022/11/06 00:15:53;;;;;;;3.53;1.73;;;;;;;9.08;100.00;101290.03;6295804;28;20044;-72
2022/11/06 00:18:54;;;;;;;4.78;1.80;;;;;;;9.11;100.00;101289.91;6295828;28;20049;-72
2022/11/06 00:21:56;;;;;;;3.22;1.83;;;;;;;9.10;100.00;101289.06;6295634;28;20423;-72
2022/11/06 00:24:58;;;;;;;4.25;1.65;;;;;;;9.10;100.00;101282.97;6295493;28;20463;-72
2022/11/06 00:28:00;;;;;;;1.77;1.58;;;;;;;9.14;100.00;101285.41;6295997;28;20056;-72
2022/11/06 00:31:02;;;;;;;2.33;1.75;;;;;;;9.17;100.00;101270.47;6295427;28;20068;-72
2022/11/06 00:34:06;;;;;;;3.42;2.25;;;;;;;9.16;100.00;101274.84;6295353;28;20412;-72
2022/11/06 00:37:07;;;;;;;10.43;1.73;;;;;;;9.18;100.00;101266.94;6295745;28;20059;-72
2022/11/06 00:40:12;;;;;;;4.45;2.33;;;;;;;9.20;100.00;101272.97;6295609;28;20045;-72
2022/11/06 00:43:14;;;;;;;2.85;1.63;;;;;;;9.18;100.00;101277.44;6295743;28;20527;-72
2022/11/06 00:46:15;;;;;;;5.93;1.90;;;;;;;9.16;100.00;101272.22;6295036;28;20059;-72
2022/11/06 00:49:16;;;;;;;4.95;1.80;;;;;;;9.18;100.00;101273.03;6295787;28;20045;-72
2022/11/06 00:52:18;;;;;;;2.55;1.63;;;;;;;9.19;100.00;101271.28;6295013;28;20059;-72
2022/11/06 00:55:21;;;;;;;2.25;1.75;;;;;;;9.23;100.00;101276.34;6297471;28;20056;-72
2022/11/06 00:58:22;;;;;;;2.88;1.95;;;;;;;9.18;100.00;101269.56;6300053;28;20492;-72
2022/11/06 01:01:26;;;;;;;5.78;2.25;;;;;;;9.17;100.00;101273.94;6299876;28;20063;-72
2022/11/06 01:04:27;;;;;;;6.68;1.90;;;;;;;9.17;100.00;101278.31;6299607;28;20045;-72
2022/11/06 01:07:28;;;;;;;2.78;1.60;;;;;;;9.14;100.00;101266.22;6299929;28;20581;-72
2022/11/06 01:10:31;;;;;;;2.85;1.98;;;;;;;9.13;100.00;101278.47;6299517;28;20059;-72
2022/11/06 01:13:33;;;;;;;7.05;1.70;;;;;;;9.11;100.00;101272.41;6300003;28;20051;-73
2022/11/06 01:16:34;;;;;;;7.40;1.95;;;;;;;9.12;100.00;101258.38;6299375;28;20150;-72
2022/11/06 01:19:35;;;;;;;2.35;1.58;;;;;;;9.11;100.00;101248.81;6299600;28;20051;-72
2022/11/06 01:22:37;;;;;;;2.63;1.83;;;;;;;9.09;100.00;101252.44;6299465;28;20049;-72
2022/11/06 01:25:40;;;;;;;10.38;2.08;;;;;;;9.10;100.00;101251.50;6299217;28;20044;-73
2022/11/06 01:28:42;;;;;;;2.38;1.42;;;;;;;9.10;100.00;101249.72;6299756;28;20056;-72
2022/11/06 01:31:43;;;;;;;4.20;1.52;;;;;;;9.13;100.00;101259.25;6299055;28;20514;-72
2022/11/06 01:34:45;;;;;;;2.03;1.40;;;;;;;9.13;100.00;101259.25;6298803;28;20419;-72
2022/11/06 01:37:47;;;;;;;2.03;1.40;;;;;;;9.14;100.00;101255.72;6299293;28;20052;-72
2022/11/06 01:40:50;;;;;;;2.53;1.48;;;;;;;9.15;100.00;101252.16;6299100;28;20527;-72
2022/11/06 01:43:53;;;;;;;4.07;1.90;;;;;;;9.12;100.00;101253.13;6298678;28;20052;-72
2022/11/06 01:46:55;;;;;;;2.92;1.67;;;;;;;9.13;100.00;101249.63;6299171;28;20053;-72
2022/11/06 01:50:01;;;;;;;4.75;1.48;;;;;;;9.10;100.00;101239.25;6298604;28;20048;-72
2022/11/06 01:53:03;;;;;;;4.38;1.48;;;;;;;9.11;100.00;101243.56;6298949;28;20668;-72
2022/11/06 01:56:09;;;;;;;3.70;1.70;;;;;;;9.11;100.00;101242.72;6298481;28;20048;-72
2022/11/06 01:59:15;;;;;;;3.38;1.77;;;;;;;9.08;100.00;101241.09;6298961;28;20496;-73
2022/11/06 02:02:17;;;;;;;2.20;1.48;;;;;;;9.06;100.00;101221.94;6298296;28;20052;-71
2022/11/06 02:05:19;;;;;;;2.78;1.50;;;;;;;9.03;100.00;101227.28;6298204;28;20419;-71
2022/11/06 02:08:22;;;;;;;3.80;1.90;;;;;;;9.05;100.00;101235.09;6298079;28;20052;-72
2022/11/06 02:11:25;;;;;;;1.55;1.17;;;;;;;9.04;100.00;101229.00;6298066;28;20413;-72
2022/11/06 02:14:44;;;;;;;4.00;1.13;;;;;;;9.03;100.00;101226.44;6298033;28;20052;-72
2022/11/06 02:17:57;;;;;;;1.83;1.30;;;;;;;9.00;100.00;101239.69;6298180;28;20067;-72
2022/11/06 02:21:28;;;;;;;2.58;1.70;;;;;;;9.00;100.00;101247.53;6297929;28;20515;-72
2022/11/06 02:24:56;;;;;;;1.70;1.45;;;;;;;8.96;100.00;101243.31;6284950;28;20633;-72
2022/11/06 02:28:03;;;;;;;4.05;1.75;;;;;;;8.95;100.00;101238.97;6298088;28;20090;-71
2022/11/06 02:31:11;;;;;;;3.90;1.85;;;;;;;8.91;100.00;101240.03;6297750;28;20075;-72
2022/11/06 02:34:15;;;;;;;2.65;1.60;;;;;;;8.89;100.00;101230.44;6297503;28;20183;-72
2022/11/06 02:37:23;;;;;;;4.10;1.75;;;;;;;8.87;100.00;101232.28;6297676;28;20533;-72
2022/11/06 02:40:31;;;;;;;6.88;1.45;;;;;;;8.87;100.00;101215.69;6297645;28;20072;-72
2022/11/06 02:43:39;;;;;;;5.60;1.67;;;;;;;8.85;100.00;101202.63;6297831;28;20045;-73
2022/11/06 02:46:45;;;;;;;2.60;1.77;;;;;;;8.86;100.00;101201.75;6296807;28;20076;-72
2022/11/06 02:49:51;;;;;;;4.45;1.83;;;;;;;8.88;100.00;101199.06;6297400;28;20055;-73
2022/11/06 02:52:55;;;;;;;4.43;1.13;;;;;;;8.86;100.00;101199.13;6297155;28;20049;-72
2022/11/06 02:56:02;;;;;;;2.67;1.33;;;;;;;8.84;100.00;101195.69;6297076;28;20396;-73
2022/11/06 02:59:09;;;;;;;2.25;1.50;;;;;;;8.82;100.00;101187.06;6297094;28;20424;-72
2022/11/06 03:02:17;;;;;;;3.85;1.33;;;;;;;8.78;100.00;101187.22;6297122;28;20063;-72
2022/11/06 03:05:24;;;;;;;1.60;1.08;;;;;;;8.75;100.00;101176.84;6296695;28;20045;-72
2022/11/06 03:08:31;;;;;;;1.88;1.40;;;;;;;8.72;100.00;101175.22;6297526;28;20044;-72
2022/11/06 03:11:34;;;;;;;3.85;1.33;;;;;;;8.68;100.00;101176.25;6297121;28;20385;-72
2022/11/06 03:14:46;;;;;;;3.45;1.23;;;;;;;8.66;100.00;101175.44;6296625;28;20049;-72
2022/11/06 03:17:55;;;;;;;2.85;1.77;;;;;;;8.64;100.00;101175.50;6296248;28;20075;-73
2022/11/06 03:21:01;;;;;;;3.83;1.60;;;;;;;8.62;100.00;101168.59;6296369;28;20419;-72
2022/11/06 03:24:12;;;;;;;3.35;1.38;;;;;;;8.59;100.00;101172.22;6296706;28;20048;-72
2022/11/06 03:27:18;;;;;;;3.22;1.30;;;;;;;8.48;100.00;101169.13;6296715;28;20064;-72
2022/11/06 03:30:21;;;;;;;5.65;1.85;;;;;;;8.38;100.00;101165.16;6296705;28;20056;-73
2022/11/06 03:33:26;;;;;;;4.53;1.40;;;;;;;8.30;100.00;101167.19;6296437;28;20052;-72
2022/11/06 03:36:33;;;;;;;2.00;1.30;;;;;;;8.27;100.00;101165.53;6296401;28;20052;-72
2022/11/06 03:39:41;;;;;;;3.42;1.30;;;;;;;8.21;100.00;101170.13;6296495;28;20048;-72
2022/11/06 03:42:45;;;;;;;3.33;1.13;;;;;;;8.14;100.00;101167.75;6296509;28;20045;-75
2022/11/06 03:45:52;;;;;;;2.58;1.73;;;;;;;8.09;100.00;101156.59;6295995;28;20053;-75
2022/11/06 03:48:56;;;;;;;2.03;1.48;;;;;;;8.04;100.00;101161.16;6296500;28;20044;-72
2022/11/06 03:52:02;;;;;;;2.92;1.35;;;;;;;8.00;100.00;101174.41;6296103;28;20049;-72
2022/11/06 03:55:07;;;;;;;7.68;1.35;;;;;;;7.96;100.00;101171.03;6296102;28;20044;-73
2022/11/06 03:58:13;;;;;;;4.57;2.00;;;;;;;7.96;100.00;101176.28;6296346;28;20052;-72
2022/11/06 04:01:21;;;;;;;6.80;1.67;;;;;;;8.02;100.00;101173.41;6296083;28;20075;-72
2022/11/06 04:04:27;;;;;;;1.95;1.40;;;;;;;8.00;100.00;101177.88;6295981;28;20480;-72
2022/11/06 04:07:34;;;;;;;5.70;1.95;;;;;;;7.96;100.00;101165.78;6296526;28;20049;-72
2022/11/06 04:14:04;;;;;;;2.38;1.40;;;;;;;7.92;100.00;101166.81;6269698;28;20044;-72
2022/11/06 04:17:11;;;;;;;3.17;1.60;;;;;;;7.92;100.00;101179.06;6295949;28;20587;-72
2022/11/06 04:21:20;;;;;;;2.60;1.40;;;;;;;7.92;100.00;101185.13;6295963;28;20067;-72
2022/11/06 04:26:34;;;;;;;2.05;1.63;;;;;;;7.95;100.00;101186.78;6295801;28;20052;-75
2022/11/06 04:27:21;;;;;;;3.65;2.47;;;;;;;7.97;100.00;101187.59;6295751;28;20099;-72
2022/11/06 04:30:22;;;;;;;4.88;1.73;;;;;;;7.98;100.00;101191.91;6297776;28;20510;-72
2022/11/06 04:33:32;;;;;;;3.75;1.67;;;;;;;7.95;100.00;101184.16;6300922;28;20424;-72
2022/11/06 04:36:43;;;;;;;5.28;1.38;;;;;;;7.93;100.00;101173.75;6300285;28;20520;-72
2022/11/06 04:39:56;;;;;;;3.70;1.80;;;;;;;7.88;100.00;101176.53;6300370;28;20049;-72
2022/11/06 04:43:01;;;;;;;2.20;1.50;;;;;;;7.86;100.00;101183.59;6300753;28;20049;-72
2022/11/06 04:46:06;;;;;;;5.25;2.05;;;;;;;7.82;100.00;101176.75;6291350;28;20484;-72
2022/11/06 04:49:10;;;;;;;3.38;1.50;;;;;;;7.83;100.00;101169.75;6293040;28;20047;-72
2022/11/06 04:52:16;;;;;;;3.13;1.52;;;;;;;7.86;100.00;101173.13;6298268;28;20053;-72
2022/11/06 04:55:18;;;;;;;4.57;1.45;;;;;;;7.87;100.00;101166.97;6300091;28;20056;-72
2022/11/06 04:58:19;;;;;;;9.05;1.88;;;;;;;7.85;100.00;101163.53;6293559;28;20048;-72
2022/11/06 05:01:21;;;;;;;2.65;1.35;;;;;;;7.87;100.00;101158.28;6278884;28;20049;-71
2022/11/06 05:04:23;;;;;;;3.42;2.22;;;;;;;7.90;100.00;101155.53;6282988;28;20044;-72
2022/11/06 05:07:25;;;;;;;6.22;2.10;;;;;;;7.85;100.00;101152.22;6288109;28;20048;-71
2022/11/06 05:10:27;;;;;;;2.30;1.30;;;;;;;7.86;100.00;101148.72;6294533;28;20456;-72
2022/11/06 05:13:28;;;;;;;4.45;1.63;;;;;;;7.82;100.00;101150.59;6287645;28;20060;-72
2022/11/06 05:16:29;;;;;;;3.47;1.60;;;;;;;7.82;100.00;101147.97;6286436;28;20053;-72
2022/11/06 05:19:32;;;;;;;4.00;1.40;;;;;;;7.78;100.00;101143.75;6279778;28;20049;-72
2022/11/06 05:25:53;;;;;;;2.72;1.50;;;;;;;7.74;100.00;101157.00;6274454;28;20424;-72
2022/11/06 05:28:54;;;;;;;2.80;1.48;;;;;;;7.74;100.00;101146.53;6274853;28;20060;-72
2022/11/06 05:31:55;;;;;;;2.80;1.63;;;;;;;7.78;100.00;101145.53;6274593;28;20067;-72
2022/11/06 05:34:58;;;;;;;2.28;1.63;;;;;;;7.78;100.00;101140.28;6274266;28;20052;-72
2022/11/06 05:38:01;;;;;;;2.78;1.80;;;;;;;7.79;100.00;101119.28;6274603;28;20060;-72
2022/11/06 05:41:02;;;;;;;4.70;1.77;;;;;;;7.77;100.00;101128.13;6273368;28;20492;-72
2022/11/06 05:44:04;;;;;;;3.28;1.40;;;;;;;7.75;100.00;101128.16;6274233;28;20041;-72
2022/11/06 05:47:05;;;;;;;5.32;1.50;;;;;;;7.74;100.00;101130.84;6274033;28;20049;-72
2022/11/06 05:50:09;;;;;;;3.38;2.05;;;;;;;7.74;100.00;101133.44;6273993;28;20052;-74
2022/11/06 05:53:11;;;;;;;3.40;1.60;;;;;;;7.69;100.00;101144.09;6306491;22;20049;-76
2022/11/06 05:56:12;;;;;;;3.30;1.52;;;;;;;7.69;100.00;101138.84;6233424;28;20045;-77
2022/11/06 05:59:14;;;;;;;2.58;1.45;;;;;;;7.67;100.00;101145.03;6236241;28;20461;-74
2022/11/06 06:02:16;;;;;;;5.45;1.35;;;;;;;7.64;100.00;101132.94;6240037;28;20090;-77
2022/11/06 06:05:19;;;;;;;3.83;1.40;;;;;;;7.60;100.00;101137.41;6248686;28;20045;-76
2022/11/06 06:08:20;;;;;;;3.45;2.00;;;;;;;7.58;100.00;101128.75;6249511;28;20508;-77
2022/11/06 06:11:22;;;;;;;2.30;1.30;;;;;;;7.57;100.00;101134.03;6248567;28;20053;-76
2022/11/06 06:14:23;;;;;;;2.95;1.45;;;;;;;7.55;100.00;101131.47;6249108;28;20049;-77
2022/11/06 06:17:25;;;;;;;1.70;1.33;;;;;;;7.58;100.00;101123.50;6249201;28;20497;-77
2022/11/06 06:20:27;;;;;;;5.20;1.83;;;;;;;7.62;100.00;101124.25;6248823;28;20080;-77
2022/11/06 06:23:29;;;;;;;2.22;1.30;;;;;;;7.60;100.00;101116.47;6249268;28;20060;-76
2022/11/06 06:26:31;;;;;;;3.20;1.33;;;;;;;7.63;100.00;101121.63;6248588;28;20045;-76
2022/11/06 06:29:32;;;;;;;3.13;1.67;;;;;;;7.58;100.00;101113.03;6249004;28;20136;-76
2022/11/06 06:32:34;;;;;;;2.03;1.08;;;;;;;7.58;100.00;101106.97;6248346;28;20049;-77
2022/11/06 06:35:36;;;;;;;3.30;1.48;;;;;;;7.61;100.00;101102.50;6248279;28;20046;-76
2022/11/06 06:38:38;;;;;;;3.10;1.58;;;;;;;7.58;100.00;101105.19;6248605;28;20060;-77
2022/11/06 06:41:39;;;;;;;3.05;1.25;;;;;;;7.57;100.00;101107.88;6248415;28;20052;-76
2022/11/06 06:44:41;;;;;;;2.85;1.38;;;;;;;7.58;100.00;101110.44;6248175;28;20390;-76
2022/11/06 06:47:42;;;;;;;5.10;1.40;;;;;;;7.64;100.00;101114.63;6248548;28;20165;-76
2022/11/06 06:50:45;;;;;;;2.72;1.45;;;;;;;7.67;100.00;101114.50;6241850;28;20497;-76
2022/11/06 06:53:47;;;;;;;5.70;1.48;;;;;;;7.70;100.00;101109.16;6248834;28;20060;-76
2022/11/06 06:56:48;;;;;;;2.45;1.13;;;;;;;7.75;100.00;101106.38;6249046;28;20052;-77
2022/11/06 06:59:50;;;;;;;2.53;1.33;;;;;;;7.77;100.00;101109.81;6247511;28;20118;-77
2022/11/06 07:02:51;;;;;;;1.88;1.30;;;;;;;7.78;100.00;101120.22;6248035;28;20052;-77
2022/11/06 07:05:54;;;;;;;2.42;1.23;;;;;;;7.77;100.00;101125.50;6246518;28;20053;-76
2022/11/06 07:08:56;;;;;;;3.50;1.10;;;;;;;7.82;100.00;101108.72;6223879;28;20054;-77
2022/11/06 07:11:57;;;;;;;3.63;1.42;;;;;;;7.84;100.00;101117.38;6225553;28;20053;-76
2022/11/06 07:14:59;;;;;;;3.33;1.65;;;;;;;7.87;100.00;101119.03;6245091;28;20048;-77
2022/11/06 07:18:05;;;;;;;1.33;1.05;;;;;;;7.89;100.00;101118.03;6246629;28;20050;-76
2022/11/06 07:21:10;;;;;;;2.55;1.25;;;;;;;7.94;100.00;101122.25;6243746;28;20045;-77
2022/11/06 07:24:11;;;;;;;6.38;1.60;;;;;;;7.97;100.00;101117.78;6245402;28;20489;-76
2022/11/06 07:27:13;;;;;;;2.28;1.60;;;;;;;8.07;100.00;101123.53;6247024;28;20042;-77
2022/11/06 07:30:14;;;;;;;1.27;0.93;;;;;;;8.08;100.00;101118.25;6243778;28;20053;-77
2022/11/06 07:33:16;;;;;;;3.17;1.20;;;;;;;8.13;100.00;101121.53;6245814;28;20045;-76
2022/11/06 07:36:19;;;;;;;2.83;1.15;;;;;;;8.12;100.00;101118.97;6245656;28;20120;-77
2022/11/06 07:39:20;;;;;;;1.92;1.00;;;;;;;8.12;100.00;101122.44;6246241;28;20056;-76
2022/11/06 07:42:22;;;;;;;3.38;1.42;;;;;;;8.15;100.00;101118.88;6246982;28;20423;-77
2022/11/06 07:45:23;;;;;;;1.88;1.17;;;;;;;8.16;100.00;101117.09;6246801;28;20133;-77
2022/11/06 07:48:24;;;;;;;2.25;1.13;;;;;;;8.17;100.00;101127.50;6247282;28;20049;-76
2022/11/06 07:51:27;;;;;;;1.75;1.13;;;;;;;8.17;100.00;101132.72;6246561;28;20049;-77
2022/11/06 07:54:29;;;;;;;1.40;1.00;;;;;;;8.23;100.00;101135.16;6246179;28;20046;-74
2022/11/06 07:57:30;;;;;;;3.15;1.40;;;;;;;8.27;100.00;101121.03;6246533;28;20417;-75
2022/11/06 08:00:31;;;;;;;2.97;1.33;;;;;;;8.36;100.00;101125.06;6246509;28;20057;-74
2022/11/06 08:03:33;;;;;;;1.13;1.00;;;;;;;8.44;100.00;101120.41;6246666;28;20501;-75
2022/11/06 08:06:35;;;;;;;1.83;1.20;;;;;;;8.56;100.00;101122.56;6245823;28;20050;-74
2022/11/06 08:09:37;;;;;;;0.98;0.80;;;;;;;8.64;100.00;101114.41;6246620;28;20056;-73
2022/11/06 08:12:38;;;;;;;1.88;0.90;;;;;;;8.72;100.00;101107.09;6246314;28;20046;-75
2022/11/06 08:15:41;;;;;;;1.75;0.90;;;;;;;8.83;100.00;101101.41;6246303;28;20056;-74
2022/11/06 08:18:43;;;;;;;9.40;1.48;;;;;;;8.94;100.00;101104.44;6246824;28;20053;-75
2022/11/06 08:21:46;;;;;;;1.67;1.05;;;;;;;9.04;100.00;101095.31;6247346;28;20057;-76
2022/11/06 08:24:47;;;;;;;1.38;1.05;;;;;;;9.10;100.00;101102.06;6243924;28;20049;-77
2022/11/06 08:27:49;;;;;;;1.33;1.00;;;;;;;9.25;100.00;101100.56;6247663;28;20053;-77
2022/11/06 08:30:50;;;;;;;2.17;0.82;;;;;;;9.31;100.00;101101.16;6246691;28;20045;-76
2022/11/06 08:33:52;;;;;;;4.03;1.42;;;;;;;9.36;100.00;101107.06;6246128;28;20049;-76
2022/11/06 08:36:55;;;;;;;9.10;1.52;;;;;;;9.37;100.00;101103.53;6242061;28;20052;-74
2022/11/06 08:39:56;;;;;;;1.88;1.08;;;;;;;9.36;100.00;101099.19;6245667;28;20087;-74
2022/11/06 08:43:02;;;;;;;3.60;1.00;;;;;;;9.33;100.00;101093.22;6245958;28;20466;-76
2022/11/06 08:46:04;;;;;;;1.40;1.05;;;;;;;9.28;100.00;101095.19;6241652;28;20053;-74
2022/11/06 08:49:05;;;;;;;1.15;0.88;;;;;;;9.34;100.00;101089.69;6241476;28;20045;-76
2022/11/06 08:52:08;;;;;;;2.67;1.30;;;;;;;9.43;100.00;101084.03;6241897;28;20493;-76
2022/11/06 08:55:09;;;;;;;2.42;1.10;;;;;;;9.43;100.00;101080.56;6245651;28;20057;-74
2022/11/06 08:58:12;;;;;;;5.18;1.00;;;;;;;9.44;100.00;101077.88;6236395;28;20064;-74
2022/11/06 09:01:14;;;;;;;2.60;1.25;;;;;;;9.45;100.00;101089.22;6245846;28;20052;-74
2022/11/06 09:04:15;;;;;;;1.65;0.82;;;;;;;9.49;100.00;101096.03;6247602;28;20046;-74
2022/11/06 09:07:18;;;;;;;1.55;0.90;;;;;;;9.58;100.00;101086.00;6246173;28;20497;-74
2022/11/06 09:10:20;;;;;;;1.92;0.90;;;;;;;9.64;100.00;101087.50;6243377;28;20054;-75
2022/11/06 09:13:21;;;;;;;1.67;1.17;;;;;;;9.66;100.00;101085.66;6244756;28;20060;-74
2022/11/06 09:16:23;;;;;;;12.32;3.35;;;;;;;9.65;100.00;101084.81;6246129;28;20048;-75
2022/11/06 09:19:24;;;;;;;7.78;1.88;;;;;;;9.67;100.00;101084.72;6250217;28;20059;-74
2022/11/06 09:22:27;;;;;;;5.47;1.08;;;;;;;9.68;100.00;101077.75;6239888;28;20046;-76
2022/11/06 09:25:29;;;;;;;4.93;1.25;;;;;;;9.71;100.00;101075.81;6225121;28;20501;-74
2022/11/06 09:28:31;;;;;;;2.40;1.05;;;;;;;9.73;100.00;101067.88;6225522;28;20421;-76
2022/11/06 09:31:32;;;;;;;1.65;1.00;;;;;;;9.71;100.00;101062.69;6224912;28;20429;-77
2022/11/06 09:34:34;;;;;;;2.22;0.80;;;;;;;9.69;100.00;101061.06;6225327;28;20053;-76
2022/11/06 09:37:36;;;;;;;1.42;0.90;;;;;;;9.64;100.00;101064.75;6225247;28;20053;-76
2022/11/06 09:40:42;;;;;;;0.93;0.82;;;;;;;9.62;100.00;101061.31;6224680;28;20403;-76
2022/11/06 09:44:01;;;;;;;1.08;0.98;;;;;;;9.64;100.00;101056.03;6224625;28;20693;-76
2022/11/06 09:47:06;;;;;;;5.95;1.35;;;;;;;9.69;100.00;101053.19;6225405;28;20050;-76
2022/11/06 09:50:15;;;;;;;1.40;1.05;;;;;;;9.70;100.00;101052.25;6224530;28;20516;-76
2022/11/06 09:53:23;;;;;;;3.22;1.23;;;;;;;9.69;100.00;101045.31;6224759;28;20050;-77
2022/11/06 09:56:32;;;;;;;1.90;1.38;;;;;;;9.69;100.00;101050.56;6241667;28;20052;-77
2022/11/06 09:59:40;;;;;;;2.97;1.10;;;;;;;9.75;100.00;101051.13;6249510;28;20045;-77
2022/11/06 10:02:45;;;;;;;1.55;0.90;;;;;;;9.87;100.00;101045.34;6248994;28;20489;-78
2022/11/06 10:05:47;;;;;;;3.10;1.02;;;;;;;10.05;100.00;101043.63;6248776;28;20468;-75
2022/11/06 10:08:51;;;;;;;1.23;0.90;;;;;;;10.20;100.00;101042.06;6249327;28;20046;-76
2022/11/06 10:12:07;;;;;;;5.80;1.23;;;;;;;10.32;100.00;101043.31;6248416;28;20045;-76
2022/11/06 10:15:20;;;;;;;3.17;1.20;;;;;;;10.43;99.83;101046.25;6248277;28;20409;-76
2022/11/06 10:18:33;;;;;;;2.53;1.00;;;;;;;10.57;98.37;101038.56;6249125;28;20054;-76
2022/11/06 10:21:46;;;;;;;1.48;1.17;;;;;;;10.77;99.34;101028.88;6248315;28;20076;-76
2022/11/06 10:24:56;;;;;;;1.45;0.95;;;;;;;10.95;97.31;101035.84;6248533;28;20049;-76
2022/11/06 10:28:02;;;;;;;1.80;1.10;;;;;;;11.07;96.39;101034.34;6248139;28;20049;-76
2022/11/06 10:31:11;;;;;;;1.33;1.00;;;;;;;11.14;94.57;101018.19;6248274;28;20060;-76
2022/11/06 10:34:16;;;;;;;1.80;0.60;;;;;;;11.27;96.19;101007.88;6248049;28;20508;-76
2022/11/06 10:37:22;;;;;;;2.00;1.25;;;;;;;11.39;93.23;100994.06;6248778;28;20048;-77
2022/11/06 10:40:28;;;;;;;2.72;0.88;;;;;;;11.54;93.77;100994.22;6247945;28;20045;-77
2022/11/06 10:43:34;;;;;;;1.92;0.75;;;;;;;11.71;92.13;100985.38;6248362;28;20527;-76
2022/11/06 10:46:38;;;;;;;2.83;1.10;;;;;;;11.97;91.33;100973.47;6247735;28;20413;-76
2022/11/06 10:49:44;;;;;;;2.13;1.17;;;;;;;12.13;89.72;100966.41;6248501;28;20489;-76
2022/11/06 10:52:57;;;;;;;1.38;1.02;;;;;;;12.31;87.93;100961.84;6247852;28;20054;-76
2022/11/06 10:56:13;;;;;;;1.10;1.00;;;;;;;12.50;88.01;100948.50;6247794;28;20041;-76
2022/11/06 10:59:16;;;;;;;1.50;0.80;;;;;;;12.64;86.49;100956.44;6247854;28;20057;-76
2022/11/06 11:02:27;;;;;;;1.02;0.82;;;;;;;12.85;86.36;100963.09;6247602;28;20045;-76
2022/11/06 11:05:37;;;;;;;1.33;0.70;;;;;;;12.95;82.49;100958.97;6247318;28;20052;-76
2022/11/06 11:08:41;;;;;;;2.90;0.85;;;;;;;13.07;82.93;100967.06;6248060;28;20072;-76
2022/11/06 11:11:49;;;;;;;0.98;0.70;;;;;;;13.23;82.99;100969.69;6247032;28;20056;-77
2022/11/06 11:15:14;;;;;;;5.50;0.97;;;;;;;13.39;81.99;100967.78;6242694;28;20041;-75
2022/11/06 11:18:18;;;;;;;0.98;0.63;;;;;;;13.33;80.80;100955.81;6258602;28;20057;-76
2022/11/06 11:21:25;;;;;;;1.15;0.73;;;;;;;13.23;80.54;100959.97;6255138;28;20057;-75
2022/11/06 11:24:27;;;;;;;2.00;0.93;;;;;;;13.07;81.60;100944.16;6246793;28;20543;-76
2022/11/06 11:27:34;;;;;;;1.20;0.82;;;;;;;13.06;82.78;100952.19;6247309;28;20057;-76
2022/11/06 11:30:36;;;;;;;1.33;0.98;;;;;;;12.98;82.43;100960.56;6246774;28;20535;-76
2022/11/06 11:33:40;;;;;;;3.03;0.98;;;;;;;12.85;83.43;100971.00;6247363;28;20055;-77
2022/11/06 11:36:54;;;;;;;1.40;0.52;;;;;;;12.94;83.79;100961.69;6246934;28;20046;-75
2022/11/06 11:40:01;;;;;;;4.35;1.23;;;;;;;13.28;81.95;100951.78;6258077;28;20053;-75
2022/11/06 11:43:22;;;;;;;2.13;1.15;;;;;;;13.36;80.07;100953.00;6267964;28;20052;-76
2022/11/06 11:46:23;;;;;;;1.30;0.90;;;;;;;13.47;79.65;100940.91;6265318;28;20428;-76
2022/11/06 11:49:27;;;;;;;1.63;0.70;;;;;;;13.69;79.32;100934.19;6258462;28;20057;-76
2022/11/06 11:52:29;;;;;;;1.42;1.15;;;;;;;13.68;78.15;100926.38;6276321;22;20050;-72
2022/11/06 11:55:31;;;;;;;1.10;0.88;;;;;;;13.55;78.20;100918.38;6245903;28;20413;-73
2022/11/06 11:58:34;;;;;;;1.20;0.98;;;;;;;13.52;78.38;100915.06;6244275;28;20053;-74
2022/11/06 12:01:39;;;;;;;4.63;1.00;;;;;;;13.55;77.88;100909.59;6245868;28;20041;-73
2022/11/06 12:04:44;;;;;;;1.38;0.57;;;;;;;13.53;79.05;100901.75;6246286;28;20053;-73
2022/11/06 12:07:49;;;;;;;1.52;0.95;;;;;;;13.47;78.54;100901.31;6245710;28;20075;-73
2022/11/06 12:10:51;;;;;;;2.22;1.10;;;;;;;13.40;78.20;100888.50;6245981;28;20417;-74
2022/11/06 12:14:24;;;;;;;2.13;1.10;;;;;;;13.16;77.81;100888.19;6245695;28;20068;-74
2022/11/06 12:17:26;;;;;;;1.45;0.90;;;;;;;13.19;78.42;100869.53;6246602;28;20053;-74
2022/11/06 12:20:42;;;;;;;3.08;1.10;;;;;;;13.25;79.99;100859.56;6246076;28;20148;-74
2022/11/06 12:23:47;;;;;;;2.40;1.33;;;;;;;13.14;78.44;100863.72;6245993;28;20050;-74
2022/11/06 12:26:54;;;;;;;1.92;0.85;;;;;;;13.20;80.15;100852.75;6246291;28;20050;-73
2022/11/06 12:30:03;;;;;;;1.38;0.90;;;;;;;13.31;79.19;100848.66;6245788;28;20058;-74
2022/11/06 12:33:11;;;;;;;2.42;1.17;;;;;;;13.36;78.22;100844.78;6245841;28;20054;-74
2022/11/06 12:36:18;;;;;;;3.90;1.13;;;;;;;13.42;77.76;100844.38;6245878;28;20387;-74
2022/11/06 12:39:24;;;;;;;1.35;0.80;;;;;;;13.56;77.81;100840.84;6246473;28;20050;-73
2022/11/06 12:42:30;;;;;;;2.20;0.93;;;;;;;13.62;76.94;100831.69;6246048;28;20049;-74
2022/11/06 12:45:59;;;;;;;2.17;0.82;;;;;;;13.64;76.54;100827.16;6238964;28;20426;-74
2022/11/06 12:49:10;;;;;;;;;;;;;;;13.51;75.95;100836.81;6239948;28;20048;-74
2022/11/06 12:52:27;;;;;;;1.58;0.77;;;;;;;13.30;77.74;100831.09;6251920;28;19921;-74
2022/11/06 12:55:33;;;;;;;3.35;1.13;;;;;;;13.16;79.06;100834.56;6250125;28;20420;-72
2022/11/06 12:58:54;;;;;;;2.55;1.05;;;;;;;13.20;80.42;100829.00;6250406;28;20060;-72
2022/11/06 13:02:11;;;;;;;1.00;0.73;;;;;;;13.24;79.80;100823.56;6250162;28;20053;-73
2022/11/06 13:05:18;;;;;;;2.08;0.82;;;;;;;13.52;80.10;100817.38;6250242;28;20045;-73
2022/11/06 13:08:31;;;;;;;6.35;1.50;;;;;;;13.61;78.62;100809.72;6250431;28;20061;-72
2022/11/06 13:11:40;;;;;;;1.70;0.90;;;;;;;13.69;78.59;100803.94;6250158;28;20136;-73
2022/11/06 13:14:50;;;;;;;2.42;1.15;;;;;;;13.93;76.39;100793.53;6249906;28;20519;-73
2022/11/06 13:17:57;;;;;;;1.40;0.80;;;;;;;14.09;73.87;100793.38;6250256;28;20049;-72
2022/11/06 13:21:04;;;;;;;1.92;1.10;;;;;;;14.07;72.59;100777.59;6249326;28;20056;-72
2022/11/06 13:24:13;;;;;;;1.17;0.90;;;;;;;14.01;72.39;100766.63;6249779;28;20058;-73
2022/11/06 13:27:24;;;;;;;2.40;1.00;;;;;;;13.89;72.33;100761.19;6250283;28;20507;-73
2022/11/06 13:30:29;;;;;;;1.45;0.57;;;;;;;13.62;72.85;100753.28;6249755;28;20497;-73
2022/11/06 13:33:36;;;;;;;1.85;1.35;;;;;;;13.42;75.28;100746.69;6249742;28;20049;-73
2022/11/06 13:36:38;;;;;;;1.50;0.80;;;;;;;13.21;74.15;100737.47;6249495;28;20056;-73
2022/11/06 13:39:43;;;;;;;1.95;1.30;;;;;;;13.12;75.92;100738.06;6249582;28;20060;-73
2022/11/06 13:42:49;;;;;;;3.58;1.27;;;;;;;13.18;74.95;100735.91;6249506;28;20046;-72
2022/11/06 13:45:59;;;;;;;2.22;1.15;;;;;;;13.19;74.53;100727.03;6249220;28;20049;-75
2022/11/06 13:49:05;;;;;;;;;;;;;;;13.20;74.97;100730.53;6250216;28;20049;-75
2022/11/06 13:52:14;;;;;;;5.25;1.02;;;;;;;13.14;74.48;100717.72;6248949;28;19921;-74
2022/11/06 13:55:24;;;;;;;3.30;1.13;;;;;;;13.01;75.52;100712.41;6245750;28;20493;-74
2022/11/06 13:59:10;;;;;;;3.42;0.90;;;;;;;12.79;77.07;100718.19;6246525;28;20057;-76
2022/11/06 14:02:30;;;;;;;5.38;1.77;;;;;;;12.68;77.25;100715.38;6151643;28;20214;-74
2022/11/06 14:05:58;;;;;;;1.33;0.95;;;;;;;12.50;77.69;100711.25;6248905;28;20041;-74
2022/11/06 14:09:04;;;;;;;1.98;1.20;;;;;;;12.38;79.13;100705.78;6248536;28;20515;-74
2022/11/06 14:12:12;;;;;;;7.38;1.30;;;;;;;12.27;79.45;100699.50;6246780;28;20485;-73
2022/11/06 14:15:17;;;;;;;3.50;1.50;;;;;;;12.19;80.11;100705.22;6245985;28;20053;-72
2022/11/06 14:18:22;;;;;;;3.63;1.58;;;;;;;12.20;80.47;100699.00;6242912;28;20052;-72
2022/11/06 14:21:54;;;;;;;2.05;1.30;;;;;;;12.19;81.58;100697.31;6245517;28;20056;-71
2022/11/06 14:24:56;;;;;;;6.45;1.63;;;;;;;12.16;82.12;100693.06;6245276;28;20049;-71
2022/11/06 14:28:05;;;;;;;3.35;1.60;;;;;;;12.12;82.50;100693.34;6248340;28;20091;-72
2022/11/06 14:31:08;;;;;;;2.25;1.30;;;;;;;12.07;83.12;100687.50;6248092;28;20049;-73